sensor_id;sensor_type;location;lat;lon;timestamp;pressure;altitude;pressure_sealevel;temperature;humidity
76553;BME280;65395;53.168;18.156;2023-04-06T00:00:26;101748.20;;;-0.45;64.84
76553;BME280;65395;53.168;18.156;2023-04-06T00:03:13;101745.61;;;-0.40;64.82
76553;BME280;65395;53.168;18.156;2023-04-06T00:05:40;101742.65;;;-0.35;64.84
76553;BME280;65395;53.168;18.156;2023-04-06T00:08:08;101743.74;;;-0.33;64.96
76553;BME280;65395;53.168;18.156;2023-04-06T00:10:35;101742.67;;;-0.30;65.04
76553;BME280;65395;53.168;18.156;2023-04-06T00:13:02;101741.34;;;-0.27;65.01
76553;BME280;65395;53.168;18.156;2023-04-06T00:15:28;101739.48;;;-0.28;65.23
76553;BME280;65395;53.168;18.156;2023-04-06T00:17:56;101740.70;;;-0.29;65.19
76553;BME280;65395;53.168;18.156;2023-04-06T00:20:23;101742.55;;;-0.29;65.29
76553;BME280;65395;53.168;18.156;2023-04-06T00:22:50;101742.04;;;-0.28;65.37
76553;BME280;65395;53.168;18.156;2023-04-06T00:25:17;101745.45;;;-0.26;65.47
76553;BME280;65395;53.168;18.156;2023-04-06T00:27:44;101742.77;;;-0.25;65.61
76553;BME280;65395;53.168;18.156;2023-04-06T00:30:11;101741.13;;;-0.23;65.70
76553;BME280;65395;53.168;18.156;2023-04-06T00:32:38;101741.52;;;-0.21;65.64
76553;BME280;65395;53.168;18.156;2023-04-06T00:35:05;101745.39;;;-0.20;65.82
76553;BME280;65395;53.168;18.156;2023-04-06T00:37:32;101742.48;;;-0.19;65.91
76553;BME280;65395;53.168;18.156;2023-04-06T00:39:59;101738.88;;;-0.15;65.84
76553;BME280;65395;53.168;18.156;2023-04-06T00:42:27;101742.48;;;-0.09;65.87
76553;BME280;65395;53.168;18.156;2023-04-06T00:44:57;101738.84;;;-0.04;65.86
76553;BME280;65395;53.168;18.156;2023-04-06T00:47:25;101738.56;;;0.02;65.82
76553;BME280;65395;53.168;18.156;2023-04-06T00:49:53;101737.58;;;0.06;65.78
76553;BME280;65395;53.168;18.156;2023-04-06T00:52:21;101739.56;;;0.08;65.73
76553;BME280;65395;53.168;18.156;2023-04-06T00:54:49;101739.95;;;0.07;65.67
76553;BME280;65395;53.168;18.156;2023-04-06T00:57:17;101737.02;;;0.06;65.85
76553;BME280;65395;53.168;18.156;2023-04-06T00:59:45;101741.25;;;0.05;65.92
76553;BME280;65395;53.168;18.156;2023-04-06T01:02:12;101740.45;;;0.04;65.92
76553;BME280;65395;53.168;18.156;2023-04-06T01:04:45;101738.91;;;0.00;65.93
76553;BME280;65395;53.168;18.156;2023-04-06T01:07:19;101734.91;;;-0.06;66.13
76553;BME280;65395;53.168;18.156;2023-04-06T01:09:59;101739.34;;;-0.12;66.24
76553;BME280;65395;53.168;18.156;2023-04-06T01:12:27;101735.27;;;-0.18;66.45
76553;BME280;65395;53.168;18.156;2023-04-06T01:14:54;101736.35;;;-0.22;66.49
76553;BME280;65395;53.168;18.156;2023-04-06T01:17:21;101736.63;;;-0.23;66.38
76553;BME280;65395;53.168;18.156;2023-04-06T01:19:48;101736.59;;;-0.23;66.39
76553;BME280;65395;53.168;18.156;2023-04-06T01:22:23;101733.84;;;-0.22;66.49
76553;BME280;65395;53.168;18.156;2023-04-06T01:24:56;101726.92;;;-0.20;66.38
76553;BME280;65395;53.168;18.156;2023-04-06T01:27:29;101728.48;;;-0.19;66.48
76553;BME280;65395;53.168;18.156;2023-04-06T01:30:08;101729.00;;;-0.20;66.68
76553;BME280;65395;53.168;18.156;2023-04-06T01:32:46;101726.61;;;-0.18;66.72
76553;BME280;65395;53.168;18.156;2023-04-06T01:35:15;101726.21;;;-0.14;66.59
76553;BME280;65395;53.168;18.156;2023-04-06T01:37:48;101724.33;;;-0.10;66.63
76553;BME280;65395;53.168;18.156;2023-04-06T01:40:21;101726.14;;;-0.07;66.52
76553;BME280;65395;53.168;18.156;2023-04-06T01:42:51;101725.91;;;-0.05;66.49
76553;BME280;65395;53.168;18.156;2023-04-06T01:45:24;101728.63;;;-0.05;66.56
76553;BME280;65395;53.168;18.156;2023-04-06T01:47:52;101726.71;;;-0.04;66.45
76553;BME280;65395;53.168;18.156;2023-04-06T01:50:22;101730.73;;;-0.06;66.38
76553;BME280;65395;53.168;18.156;2023-04-06T01:52:49;101726.38;;;-0.07;66.42
76553;BME280;65395;53.168;18.156;2023-04-06T01:55:17;101725.41;;;-0.13;66.69
76553;BME280;65395;53.168;18.156;2023-04-06T01:58:02;101725.27;;;-0.22;66.88
76553;BME280;65395;53.168;18.156;2023-04-06T02:00:34;101723.13;;;-0.27;66.86
76553;BME280;65395;53.168;18.156;2023-04-06T02:03:02;101722.25;;;-0.31;66.82
76553;BME280;65395;53.168;18.156;2023-04-06T02:05:30;101724.53;;;-0.34;66.70
76553;BME280;65395;53.168;18.156;2023-04-06T02:07:58;101722.33;;;-0.36;66.84
76553;BME280;65395;53.168;18.156;2023-04-06T02:10:32;101725.42;;;-0.37;66.75
76553;BME280;65395;53.168;18.156;2023-04-06T02:13:01;101719.08;;;-0.39;66.69
76553;BME280;65395;53.168;18.156;2023-04-06T02:15:28;101720.70;;;-0.39;66.79
76553;BME280;65395;53.168;18.156;2023-04-06T02:17:57;101721.58;;;-0.41;67.07
76553;BME280;65395;53.168;18.156;2023-04-06T02:20:24;101723.23;;;-0.43;67.23
76553;BME280;65395;53.168;18.156;2023-04-06T02:22:51;101718.84;;;-0.48;67.44
76553;BME280;65395;53.168;18.156;2023-04-06T02:25:18;101718.55;;;-0.48;67.58
76553;BME280;65395;53.168;18.156;2023-04-06T02:27:45;101716.73;;;-0.46;67.62
76553;BME280;65395;53.168;18.156;2023-04-06T02:30:12;101720.42;;;-0.45;67.76
76553;BME280;65395;53.168;18.156;2023-04-06T02:32:39;101717.52;;;-0.43;67.63
76553;BME280;65395;53.168;18.156;2023-04-06T02:35:06;101718.89;;;-0.37;67.62
76553;BME280;65395;53.168;18.156;2023-04-06T02:37:34;101720.70;;;-0.30;67.46
76553;BME280;65395;53.168;18.156;2023-04-06T02:40:00;101724.23;;;-0.23;67.23
76553;BME280;65395;53.168;18.156;2023-04-06T02:42:29;101722.95;;;-0.19;67.25
76553;BME280;65395;53.168;18.156;2023-04-06T02:44:56;101725.29;;;-0.15;67.20
76553;BME280;65395;53.168;18.156;2023-04-06T02:47:25;101730.99;;;-0.15;67.45
76553;BME280;65395;53.168;18.156;2023-04-06T02:49:52;101733.49;;;-0.16;67.47
76553;BME280;65395;53.168;18.156;2023-04-06T02:52:19;101733.42;;;-0.18;67.64
76553;BME280;65395;53.168;18.156;2023-04-06T02:54:46;101736.05;;;-0.21;67.89
76553;BME280;65395;53.168;18.156;2023-04-06T02:57:13;101735.16;;;-0.22;67.78
76553;BME280;65395;53.168;18.156;2023-04-06T02:59:43;101738.31;;;-0.20;67.68
76553;BME280;65395;53.168;18.156;2023-04-06T03:02:15;101737.05;;;-0.18;67.63
76553;BME280;65395;53.168;18.156;2023-04-06T03:04:43;101739.91;;;-0.16;67.51
76553;BME280;65395;53.168;18.156;2023-04-06T03:07:19;101734.90;;;-0.15;67.83
76553;BME280;65395;53.168;18.156;2023-04-06T03:09:46;101732.90;;;-0.14;67.79
76553;BME280;65395;53.168;18.156;2023-04-06T03:12:13;101733.43;;;-0.14;67.95
76553;BME280;65395;53.168;18.156;2023-04-06T03:14:50;101733.55;;;-0.12;67.94
76553;BME280;65395;53.168;18.156;2023-04-06T03:17:17;101736.82;;;-0.08;67.98
76553;BME280;65395;53.168;18.156;2023-04-06T03:19:43;101739.05;;;-0.02;67.83
76553;BME280;65395;53.168;18.156;2023-04-06T03:22:11;101732.67;;;-0.02;67.59
76553;BME280;65395;53.168;18.156;2023-04-06T03:24:39;101736.52;;;0.07;67.56
76553;BME280;65395;53.168;18.156;2023-04-06T03:27:06;101735.50;;;0.10;67.77
76553;BME280;65395;53.168;18.156;2023-04-06T03:29:33;101735.88;;;0.12;67.77
76553;BME280;65395;53.168;18.156;2023-04-06T03:32:00;101733.41;;;0.14;67.87
76553;BME280;65395;53.168;18.156;2023-04-06T03:34:34;101732.33;;;0.17;67.96
76553;BME280;65395;53.168;18.156;2023-04-06T03:37:01;101733.08;;;0.17;68.06
76553;BME280;65395;53.168;18.156;2023-04-06T03:39:29;101734.45;;;0.14;68.19
76553;BME280;65395;53.168;18.156;2023-04-06T03:41:56;101734.13;;;0.12;68.22
76553;BME280;65395;53.168;18.156;2023-04-06T03:44:31;101735.14;;;0.14;68.20
76553;BME280;65395;53.168;18.156;2023-04-06T03:46:58;101733.60;;;0.17;67.98
76553;BME280;65395;53.168;18.156;2023-04-06T03:49:25;101739.71;;;0.19;67.84
76553;BME280;65395;53.168;18.156;2023-04-06T03:51:53;101738.68;;;0.19;67.70
76553;BME280;65395;53.168;18.156;2023-04-06T03:54:23;101737.86;;;0.17;67.88
76553;BME280;65395;53.168;18.156;2023-04-06T03:56:50;101742.23;;;0.14;68.08
76553;BME280;65395;53.168;18.156;2023-04-06T03:59:16;101746.69;;;0.12;67.81
76553;BME280;65395;53.168;18.156;2023-04-06T04:01:43;101744.09;;;0.10;67.93
76553;BME280;65395;53.168;18.156;2023-04-06T04:04:10;101747.29;;;0.11;67.95
76553;BME280;65395;53.168;18.156;2023-04-06T04:06:37;101752.03;;;0.13;68.19
76553;BME280;65395;53.168;18.156;2023-04-06T04:09:04;101754.38;;;0.12;68.42
76553;BME280;65395;53.168;18.156;2023-04-06T04:11:30;101752.55;;;0.12;68.41
76553;BME280;65395;53.168;18.156;2023-04-06T04:13:58;101755.23;;;0.15;68.46
76553;BME280;65395;53.168;18.156;2023-04-06T04:16:24;101760.53;;;0.19;68.27
76553;BME280;65395;53.168;18.156;2023-04-06T04:18:51;101757.44;;;0.22;68.15
76553;BME280;65395;53.168;18.156;2023-04-06T04:21:18;101757.92;;;0.22;68.21
76553;BME280;65395;53.168;18.156;2023-04-06T04:23:45;101758.20;;;0.22;68.19
76553;BME280;65395;53.168;18.156;2023-04-06T04:26:12;101763.04;;;0.23;68.43
76553;BME280;65395;53.168;18.156;2023-04-06T04:28:43;101762.21;;;0.24;68.27
76553;BME280;65395;53.168;18.156;2023-04-06T04:31:10;101763.49;;;0.27;68.30
76553;BME280;65395;53.168;18.156;2023-04-06T04:33:37;101760.33;;;0.32;68.19
76553;BME280;65395;53.168;18.156;2023-04-06T04:36:08;101758.48;;;0.34;68.28
76553;BME280;65395;53.168;18.156;2023-04-06T04:38:39;101759.38;;;0.38;68.17
76553;BME280;65395;53.168;18.156;2023-04-06T04:41:06;101763.94;;;0.42;68.24
76553;BME280;65395;53.168;18.156;2023-04-06T04:43:34;101765.30;;;0.43;67.99
76553;BME280;65395;53.168;18.156;2023-04-06T04:46:02;101764.11;;;0.43;67.99
76553;BME280;65395;53.168;18.156;2023-04-06T04:48:39;101762.91;;;0.43;68.23
76553;BME280;65395;53.168;18.156;2023-04-06T04:51:06;101762.50;;;0.46;68.13
76553;BME280;65395;53.168;18.156;2023-04-06T04:53:44;101762.95;;;0.50;68.10
76553;BME280;65395;53.168;18.156;2023-04-06T04:56:18;101768.11;;;0.51;68.06
76553;BME280;65395;53.168;18.156;2023-04-06T04:58:45;101766.81;;;0.54;68.04
76553;BME280;65395;53.168;18.156;2023-04-06T05:01:12;101765.48;;;0.61;68.01
76553;BME280;65395;53.168;18.156;2023-04-06T05:03:39;101765.44;;;0.65;68.10
76553;BME280;65395;53.168;18.156;2023-04-06T05:06:07;101764.98;;;0.70;68.38
76553;BME280;65395;53.168;18.156;2023-04-06T05:08:36;101768.70;;;0.76;68.34
76553;BME280;65395;53.168;18.156;2023-04-06T05:11:03;101769.73;;;0.82;68.39
76553;BME280;65395;53.168;18.156;2023-04-06T05:13:34;101770.40;;;0.89;68.54
76553;BME280;65395;53.168;18.156;2023-04-06T05:16:06;101773.87;;;0.96;68.36
76553;BME280;65395;53.168;18.156;2023-04-06T05:18:34;101776.64;;;1.02;68.50
76553;BME280;65395;53.168;18.156;2023-04-06T05:21:01;101777.95;;;1.08;68.28
76553;BME280;65395;53.168;18.156;2023-04-06T05:23:37;101776.48;;;1.16;68.24
76553;BME280;65395;53.168;18.156;2023-04-06T05:26:04;101778.39;;;1.24;68.20
76553;BME280;65395;53.168;18.156;2023-04-06T05:28:32;101780.96;;;1.30;68.07
76553;BME280;65395;53.168;18.156;2023-04-06T05:31:02;101781.14;;;1.37;68.03
76553;BME280;65395;53.168;18.156;2023-04-06T05:33:33;101785.36;;;1.43;67.99
76553;BME280;65395;53.168;18.156;2023-04-06T05:36:05;101785.92;;;1.51;67.71
76553;BME280;65395;53.168;18.156;2023-04-06T05:38:34;101784.54;;;1.59;67.69
76553;BME280;65395;53.168;18.156;2023-04-06T05:41:06;101788.39;;;1.65;67.48
76553;BME280;65395;53.168;18.156;2023-04-06T05:43:33;101789.75;;;1.73;67.47
76553;BME280;65395;53.168;18.156;2023-04-06T05:46:00;101789.55;;;1.83;67.13
76553;BME280;65395;53.168;18.156;2023-04-06T05:48:27;101786.96;;;1.92;66.91
76553;BME280;65395;53.168;18.156;2023-04-06T05:50:54;101785.08;;;2.00;66.77
76553;BME280;65395;53.168;18.156;2023-04-06T05:53:26;101787.92;;;2.09;66.57
76553;BME280;65395;53.168;18.156;2023-04-06T05:56:00;101783.23;;;2.17;66.36
76553;BME280;65395;53.168;18.156;2023-04-06T05:58:27;101782.34;;;2.25;65.89
76553;BME280;65395;53.168;18.156;2023-04-06T06:00:58;101780.14;;;2.34;66.01
76553;BME280;65395;53.168;18.156;2023-04-06T06:03:26;101786.11;;;2.45;65.95
76553;BME280;65395;53.168;18.156;2023-04-06T06:05:59;101780.88;;;2.55;65.58
76553;BME280;65395;53.168;18.156;2023-04-06T06:08:29;101780.18;;;2.62;65.42
76553;BME280;65395;53.168;18.156;2023-04-06T06:10:57;101778.72;;;2.69;65.49
76553;BME280;65395;53.168;18.156;2023-04-06T06:13:24;101782.51;;;2.74;64.87
76553;BME280;65395;53.168;18.156;2023-04-06T06:15:52;101780.95;;;2.80;64.79
76553;BME280;65395;53.168;18.156;2023-04-06T06:18:19;101780.38;;;2.87;64.56
76553;BME280;65395;53.168;18.156;2023-04-06T06:20:47;101777.27;;;2.95;64.46
76553;BME280;65395;53.168;18.156;2023-04-06T06:23:15;101778.58;;;3.04;64.16
76553;BME280;65395;53.168;18.156;2023-04-06T06:25:42;101777.65;;;3.13;63.79
76553;BME280;65395;53.168;18.156;2023-04-06T06:28:09;101778.87;;;3.20;63.60
76553;BME280;65395;53.168;18.156;2023-04-06T06:30:36;101777.86;;;3.26;63.17
76553;BME280;65395;53.168;18.156;2023-04-06T06:33:04;101781.77;;;3.30;63.15
76553;BME280;65395;53.168;18.156;2023-04-06T06:35:32;101776.85;;;3.34;62.69
76553;BME280;65395;53.168;18.156;2023-04-06T06:38:01;101779.20;;;3.37;62.58
76553;BME280;65395;53.168;18.156;2023-04-06T06:40:28;101774.59;;;3.44;62.49
76553;BME280;65395;53.168;18.156;2023-04-06T06:42:55;101781.16;;;3.53;62.28
76553;BME280;65395;53.168;18.156;2023-04-06T06:45:33;101780.83;;;3.64;61.97
76553;BME280;65395;53.168;18.156;2023-04-06T06:48:00;101782.65;;;3.73;61.77
76553;BME280;65395;53.168;18.156;2023-04-06T06:50:27;101781.95;;;3.81;61.55
76553;BME280;65395;53.168;18.156;2023-04-06T06:52:54;101780.64;;;3.89;61.24
76553;BME280;65395;53.168;18.156;2023-04-06T06:55:21;101778.42;;;4.01;60.83
76553;BME280;65395;53.168;18.156;2023-04-06T06:57:48;101778.59;;;4.10;59.92
76553;BME280;65395;53.168;18.156;2023-04-06T07:00:15;101777.05;;;4.19;59.62
76553;BME280;65395;53.168;18.156;2023-04-06T07:02:43;101774.77;;;4.31;59.20
76553;BME280;65395;53.168;18.156;2023-04-06T07:05:11;101772.56;;;4.43;58.61
76553;BME280;65395;53.168;18.156;2023-04-06T07:07:38;101770.67;;;4.54;57.71
76553;BME280;65395;53.168;18.156;2023-04-06T07:10:05;101768.14;;;4.62;56.79
76553;BME280;65395;53.168;18.156;2023-04-06T07:12:32;101764.10;;;4.65;56.38
76553;BME280;65395;53.168;18.156;2023-04-06T07:15:00;101765.04;;;4.67;56.57
76553;BME280;65395;53.168;18.156;2023-04-06T07:17:27;101766.48;;;4.77;56.30
76553;BME280;65395;53.168;18.156;2023-04-06T07:19:54;101765.98;;;4.84;54.16
76553;BME280;65395;53.168;18.156;2023-04-06T07:22:21;101766.58;;;4.86;54.38
76553;BME280;65395;53.168;18.156;2023-04-06T07:24:48;101770.21;;;4.90;53.96
76553;BME280;65395;53.168;18.156;2023-04-06T07:27:14;101769.46;;;4.95;54.56
76553;BME280;65395;53.168;18.156;2023-04-06T07:29:43;101769.50;;;5.09;54.53
76553;BME280;65395;53.168;18.156;2023-04-06T07:32:10;101763.77;;;5.28;53.78
76553;BME280;65395;53.168;18.156;2023-04-06T07:34:38;101761.04;;;5.39;53.11
76553;BME280;65395;53.168;18.156;2023-04-06T07:37:05;101764.05;;;5.51;52.86
76553;BME280;65395;53.168;18.156;2023-04-06T07:39:34;101765.29;;;5.65;52.83
76553;BME280;65395;53.168;18.156;2023-04-06T07:42:01;101765.50;;;5.76;52.02
76553;BME280;65395;53.168;18.156;2023-04-06T07:44:28;101767.92;;;5.85;50.78
76553;BME280;65395;53.168;18.156;2023-04-06T07:46:56;101765.20;;;5.87;51.03
76553;BME280;65395;53.168;18.156;2023-04-06T07:49:23;101766.30;;;5.96;51.20
76553;BME280;65395;53.168;18.156;2023-04-06T07:51:50;101758.46;;;6.07;50.12
76553;BME280;65395;53.168;18.156;2023-04-06T07:54:17;101760.21;;;6.08;49.31
76553;BME280;65395;53.168;18.156;2023-04-06T07:56:45;101756.17;;;6.04;48.26
76553;BME280;65395;53.168;18.156;2023-04-06T07:59:12;101750.87;;;6.01;49.16
76553;BME280;65395;53.168;18.156;2023-04-06T08:01:40;101755.92;;;5.97;47.65
76553;BME280;65395;53.168;18.156;2023-04-06T08:04:07;101755.56;;;5.87;46.56
76553;BME280;65395;53.168;18.156;2023-04-06T08:06:34;101754.20;;;5.76;48.04
76553;BME280;65395;53.168;18.156;2023-04-06T08:09:03;101752.24;;;5.78;48.73
76553;BME280;65395;53.168;18.156;2023-04-06T08:11:29;101754.60;;;5.84;48.55
76553;BME280;65395;53.168;18.156;2023-04-06T08:13:56;101755.22;;;5.94;48.26
76553;BME280;65395;53.168;18.156;2023-04-06T08:16:24;101757.45;;;6.07;47.60
76553;BME280;65395;53.168;18.156;2023-04-06T08:18:50;101758.81;;;6.19;46.43
76553;BME280;65395;53.168;18.156;2023-04-06T08:21:17;101763.45;;;6.20;45.74
76553;BME280;65395;53.168;18.156;2023-04-06T08:23:44;101765.67;;;6.20;46.34
76553;BME280;65395;53.168;18.156;2023-04-06T08:26:12;101766.59;;;6.25;45.67
76553;BME280;65395;53.168;18.156;2023-04-06T08:28:39;101762.77;;;6.32;45.43
76553;BME280;65395;53.168;18.156;2023-04-06T08:31:06;101763.86;;;6.38;45.57
76553;BME280;65395;53.168;18.156;2023-04-06T08:33:33;101766.60;;;6.47;44.97
76553;BME280;65395;53.168;18.156;2023-04-06T08:36:13;101765.58;;;6.51;44.88
76553;BME280;65395;53.168;18.156;2023-04-06T08:38:41;101762.98;;;6.57;45.54
76553;BME280;65395;53.168;18.156;2023-04-06T08:41:12;101757.27;;;6.70;45.74
76553;BME280;65395;53.168;18.156;2023-04-06T08:43:43;101763.19;;;6.85;43.79
76553;BME280;65395;53.168;18.156;2023-04-06T08:46:11;101763.55;;;6.87;44.15
76553;BME280;65395;53.168;18.156;2023-04-06T08:48:38;101764.84;;;6.83;42.64
76553;BME280;65395;53.168;18.156;2023-04-06T08:51:08;101765.01;;;6.76;44.25
76553;BME280;65395;53.168;18.156;2023-04-06T08:53:35;101760.58;;;6.83;44.35
76553;BME280;65395;53.168;18.156;2023-04-06T08:56:02;101763.83;;;6.91;43.35
76553;BME280;65395;53.168;18.156;2023-04-06T08:58:35;101761.96;;;6.89;43.09
76553;BME280;65395;53.168;18.156;2023-04-06T09:01:07;101759.99;;;6.91;43.96
76553;BME280;65395;53.168;18.156;2023-04-06T09:03:37;101758.27;;;7.02;43.59
76553;BME280;65395;53.168;18.156;2023-04-06T09:06:06;101763.14;;;7.08;42.80
76553;BME280;65395;53.168;18.156;2023-04-06T09:08:35;101763.00;;;7.06;42.33
76553;BME280;65395;53.168;18.156;2023-04-06T09:11:03;101752.56;;;7.06;43.45
76553;BME280;65395;53.168;18.156;2023-04-06T09:13:44;101753.30;;;7.17;43.30
76553;BME280;65395;53.168;18.156;2023-04-06T09:16:12;101751.52;;;7.29;43.42
76553;BME280;65395;53.168;18.156;2023-04-06T09:18:39;101748.80;;;7.35;42.04
76553;BME280;65395;53.168;18.156;2023-04-06T09:21:07;101747.36;;;7.31;42.07
76553;BME280;65395;53.168;18.156;2023-04-06T09:23:34;101743.40;;;7.33;42.50
76553;BME280;65395;53.168;18.156;2023-04-06T09:26:08;101742.59;;;7.37;42.65
76553;BME280;65395;53.168;18.156;2023-04-06T09:28:54;101743.43;;;7.40;42.13
76553;BME280;65395;53.168;18.156;2023-04-06T09:31:27;101744.14;;;7.36;41.95
76553;BME280;65395;53.168;18.156;2023-04-06T09:33:56;101747.68;;;7.25;41.60
76553;BME280;65395;53.168;18.156;2023-04-06T09:36:34;101745.88;;;7.16;41.35
76553;BME280;65395;53.168;18.156;2023-04-06T09:39:03;101744.60;;;7.09;42.29
76553;BME280;65395;53.168;18.156;2023-04-06T09:41:32;101741.73;;;7.11;42.58
76553;BME280;65395;53.168;18.156;2023-04-06T09:44:07;101742.61;;;7.18;42.09
76553;BME280;65395;53.168;18.156;2023-04-06T09:46:37;101744.16;;;7.17;40.97
76553;BME280;65395;53.168;18.156;2023-04-06T09:49:06;101743.67;;;7.07;41.18
76553;BME280;65395;53.168;18.156;2023-04-06T09:51:38;101746.86;;;7.04;41.48
76553;BME280;65395;53.168;18.156;2023-04-06T09:54:06;101747.48;;;6.97;40.60
76553;BME280;65395;53.168;18.156;2023-04-06T09:56:44;101745.84;;;6.83;41.34
76553;BME280;65395;53.168;18.156;2023-04-06T09:59:14;101741.29;;;6.77;42.07
76553;BME280;65395;53.168;18.156;2023-04-06T10:01:46;101743.45;;;6.81;41.93
76553;BME280;65395;53.168;18.156;2023-04-06T10:07:02;101741.55;;;6.62;40.75
76553;BME280;65395;53.168;18.156;2023-04-06T10:09:29;101736.30;;;6.53;41.94
76553;BME280;65395;53.168;18.156;2023-04-06T10:12:04;101732.02;;;6.65;42.46
76553;BME280;65395;53.168;18.156;2023-04-06T10:14:34;101728.61;;;6.80;41.73
76553;BME280;65395;53.168;18.156;2023-04-06T10:17:04;101729.19;;;6.86;41.47
76553;BME280;65395;53.168;18.156;2023-04-06T10:19:46;101732.64;;;6.86;41.34
76553;BME280;65395;53.168;18.156;2023-04-06T10:22:20;101725.98;;;6.82;41.46
76553;BME280;65395;53.168;18.156;2023-04-06T10:24:49;101726.17;;;6.79;41.50
76553;BME280;65395;53.168;18.156;2023-04-06T10:27:16;101726.41;;;6.78;41.93
76553;BME280;65395;53.168;18.156;2023-04-06T10:29:53;101719.11;;;6.83;41.64
76553;BME280;65395;53.168;18.156;2023-04-06T10:32:20;101723.64;;;6.81;41.39
76553;BME280;65395;53.168;18.156;2023-04-06T10:34:46;101725.27;;;6.75;41.55
76553;BME280;65395;53.168;18.156;2023-04-06T10:37:14;101713.60;;;6.69;41.62
76553;BME280;65395;53.168;18.156;2023-04-06T10:39:52;101714.08;;;6.72;42.16
76553;BME280;65395;53.168;18.156;2023-04-06T10:42:25;101706.50;;;6.86;42.26
76553;BME280;65395;53.168;18.156;2023-04-06T10:44:52;101702.77;;;7.07;42.18
76553;BME280;65395;53.168;18.156;2023-04-06T10:47:19;101702.14;;;7.30;42.26
76553;BME280;65395;53.168;18.156;2023-04-06T10:49:46;101702.35;;;7.57;41.76
76553;BME280;65395;53.168;18.156;2023-04-06T10:52:13;101698.13;;;7.79;41.49
76553;BME280;65395;53.168;18.156;2023-04-06T10:54:42;101693.93;;;7.87;40.38
76553;BME280;65395;53.168;18.156;2023-04-06T10:57:10;101695.17;;;7.85;40.79
76553;BME280;65395;53.168;18.156;2023-04-06T10:59:42;101691.07;;;7.93;41.01
76553;BME280;65395;53.168;18.156;2023-04-06T11:02:08;101691.73;;;8.10;41.00
76553;BME280;65395;53.168;18.156;2023-04-06T11:04:35;101687.19;;;8.20;40.59
76553;BME280;65395;53.168;18.156;2023-04-06T11:07:02;101685.71;;;8.12;40.05
76553;BME280;65395;53.168;18.156;2023-04-06T11:09:30;101687.67;;;8.05;40.71
76553;BME280;65395;53.168;18.156;2023-04-06T11:11:58;101685.91;;;8.07;40.46
76553;BME280;65395;53.168;18.156;2023-04-06T11:14:25;101680.59;;;8.01;40.25
76553;BME280;65395;53.168;18.156;2023-04-06T11:16:52;101674.16;;;8.01;40.65
76553;BME280;65395;53.168;18.156;2023-04-06T11:19:20;101672.21;;;8.12;40.49
76553;BME280;65395;53.168;18.156;2023-04-06T11:21:47;101661.81;;;8.27;40.83
76553;BME280;65395;53.168;18.156;2023-04-06T11:24:18;101662.88;;;8.49;40.74
76553;BME280;65395;53.168;18.156;2023-04-06T11:26:52;101663.95;;;8.72;40.22
76553;BME280;65395;53.168;18.156;2023-04-06T11:29:22;101664.11;;;8.76;40.05
76553;BME280;65395;53.168;18.156;2023-04-06T11:31:52;101664.02;;;8.72;40.28
76553;BME280;65395;53.168;18.156;2023-04-06T11:34:22;101658.30;;;8.73;39.95
76553;BME280;65395;53.168;18.156;2023-04-06T11:36:54;101650.81;;;8.71;39.81
76553;BME280;65395;53.168;18.156;2023-04-06T11:39:24;101644.67;;;8.73;39.90
76553;BME280;65395;53.168;18.156;2023-04-06T11:41:54;101653.12;;;8.72;39.71
76553;BME280;65395;53.168;18.156;2023-04-06T11:44:33;101653.32;;;8.51;39.63
76553;BME280;65395;53.168;18.156;2023-04-06T11:47:02;101656.38;;;8.28;40.10
76553;BME280;65395;53.168;18.156;2023-04-06T11:49:31;101648.10;;;8.19;40.42
76553;BME280;65395;53.168;18.156;2023-04-06T11:52:00;101639.10;;;8.29;40.78
76553;BME280;65395;53.168;18.156;2023-04-06T11:54:35;101639.09;;;8.47;40.64
76553;BME280;65395;53.168;18.156;2023-04-06T11:57:04;101637.45;;;8.56;39.90
76553;BME280;65395;53.168;18.156;2023-04-06T11:59:32;101637.39;;;8.60;39.14
76553;BME280;65395;53.168;18.156;2023-04-06T12:01:58;101630.48;;;8.62;39.84
76553;BME280;65395;53.168;18.156;2023-04-06T12:04:25;101625.71;;;8.63;39.22
76553;BME280;65395;53.168;18.156;2023-04-06T12:06:52;101621.20;;;8.55;39.53
76553;BME280;65395;53.168;18.156;2023-04-06T12:09:19;101615.79;;;8.55;39.50
76553;BME280;65395;53.168;18.156;2023-04-06T12:11:46;101614.38;;;8.56;39.77
76553;BME280;65395;53.168;18.156;2023-04-06T12:14:13;101613.27;;;8.65;39.20
76553;BME280;65395;53.168;18.156;2023-04-06T12:16:40;101611.02;;;8.68;39.24
76553;BME280;65395;53.168;18.156;2023-04-06T12:19:07;101603.92;;;8.73;39.82
76553;BME280;65395;53.168;18.156;2023-04-06T12:21:35;101607.30;;;8.85;39.88
76553;BME280;65395;53.168;18.156;2023-04-06T12:24:04;101605.60;;;9.01;39.57
76553;BME280;65395;53.168;18.156;2023-04-06T12:26:32;101603.48;;;9.19;38.73
76553;BME280;65395;53.168;18.156;2023-04-06T12:28:59;101604.25;;;9.23;37.87
76553;BME280;65395;53.168;18.156;2023-04-06T12:31:34;101603.95;;;9.18;38.52
76553;BME280;65395;53.168;18.156;2023-04-06T12:34:02;101597.39;;;9.28;39.02
76553;BME280;65395;53.168;18.156;2023-04-06T12:36:29;101598.84;;;9.49;39.02
76553;BME280;65395;53.168;18.156;2023-04-06T12:38:57;101596.77;;;9.66;38.50
76553;BME280;65395;53.168;18.156;2023-04-06T12:41:24;101598.27;;;9.78;38.17
76553;BME280;65395;53.168;18.156;2023-04-06T12:43:52;101595.60;;;9.82;38.15
76553;BME280;65395;53.168;18.156;2023-04-06T12:46:19;101593.58;;;9.88;38.35
76553;BME280;65395;53.168;18.156;2023-04-06T12:48:46;101590.66;;;10.00;38.58
76553;BME280;65395;53.168;18.156;2023-04-06T12:51:13;101592.96;;;10.14;38.22
76553;BME280;65395;53.168;18.156;2023-04-06T12:53:40;101591.73;;;10.24;37.99
76553;BME280;65395;53.168;18.156;2023-04-06T12:56:17;101589.10;;;10.29;37.24
76553;BME280;65395;53.168;18.156;2023-04-06T12:58:45;101587.11;;;10.30;36.90